createdAt,value
2022-11-27T00:03:50.364Z,2.15
2022-11-27T00:13:58.575Z,2.20
2022-11-27T00:24:07.254Z,2.24
2022-11-27T00:34:14.600Z,2.05
2022-11-27T00:44:22.396Z,1.95
2022-11-27T00:54:29.573Z,1.87
2022-11-27T01:04:36.984Z,1.89
2022-11-27T01:14:44.439Z,1.99
2022-11-27T01:24:51.512Z,2.05
2022-11-27T01:34:58.553Z,2.12
2022-11-27T01:45:05.980Z,2.25
2022-11-27T01:55:13.832Z,2.36
2022-11-27T02:05:24.158Z,2.36
2022-11-27T02:15:31.400Z,2.29
2022-11-27T02:25:42.641Z,2.07
2022-11-27T02:35:57.321Z,2.00
2022-11-27T02:46:06.537Z,2.10
2022-11-27T02:56:17.961Z,2.26
2022-11-27T03:06:29.318Z,2.21
2022-11-27T03:16:36.185Z,2.00
2022-11-27T03:26:44.056Z,1.87
2022-11-27T03:36:51.364Z,1.81
2022-11-27T03:46:59.707Z,1.91
2022-11-27T03:57:12.250Z,1.98
2022-11-27T04:07:20.229Z,2.11
2022-11-27T04:17:27.335Z,2.15
2022-11-27T04:27:34.575Z,2.00
2022-11-27T04:37:41.796Z,1.90
2022-11-27T04:47:49.031Z,1.94
2022-11-27T04:57:56.098Z,1.97
2022-11-27T05:08:03.283Z,2.05
2022-11-27T05:18:07.697Z,2.02
2022-11-27T05:28:14.814Z,2.02
2022-11-27T05:38:20.972Z,1.95
2022-11-27T05:48:27.928Z,1.86
2022-11-27T05:58:36.218Z,1.87
2022-11-27T06:08:43.718Z,1.92
2022-11-27T06:18:49.928Z,2.16
2022-11-27T06:28:58.842Z,2.26
2022-11-27T06:39:05.642Z,2.13
2022-11-27T06:49:13.098Z,1.98
2022-11-27T06:59:20.947Z,1.93
2022-11-27T07:09:27.879Z,1.97
2022-11-27T07:19:35.168Z,2.14
2022-11-27T07:29:42.352Z,2.27
2022-11-27T07:40:05.005Z,2.29
2022-11-27T07:50:13.820Z,2.26
2022-11-27T08:00:22.314Z,2.34
2022-11-27T08:10:30.039Z,2.41
2022-11-27T08:20:37.961Z,2.51
2022-11-27T08:30:45.103Z,2.66
2022-11-27T08:40:55.601Z,2.78
2022-11-27T08:51:05.968Z,2.92
2022-11-27T09:01:11.490Z,2.98
2022-11-27T09:11:20.622Z,2.85
2022-11-27T09:21:30.518Z,2.93
2022-11-27T09:31:37.820Z,3.16
2022-11-27T09:41:51.302Z,3.39
2022-11-27T09:51:59.898Z,3.56
2022-11-27T10:02:16.089Z,3.62
2022-11-27T10:12:21.906Z,3.53
2022-11-27T10:22:36.625Z,3.54
2022-11-27T10:33:01.510Z,3.68
2022-11-27T10:43:12.062Z,3.77
2022-11-27T10:53:17.405Z,3.85
2022-11-27T11:03:25.672Z,3.92
2022-11-27T11:13:34.835Z,4.15
2022-11-27T11:23:42.431Z,4.26
2022-11-27T11:33:51.347Z,4.28
2022-11-27T11:43:57.427Z,4.29
2022-11-27T11:54:04.232Z,4.38
2022-11-27T12:04:13.420Z,4.49
2022-11-27T12:14:20.251Z,4.53
2022-11-27T12:24:29.171Z,4.61
2022-11-27T12:34:35.727Z,4.56
2022-11-27T12:44:43.103Z,4.46
2022-11-27T12:54:49.382Z,4.52
2022-11-27T13:04:59.009Z,4.59
2022-11-27T13:15:08.009Z,4.65
2022-11-27T13:25:14.489Z,4.60
2022-11-27T13:35:21.907Z,4.51
2022-11-27T13:45:33.010Z,4.38
2022-11-27T13:55:53.594Z,4.31
2022-11-27T14:06:01.022Z,4.28
2022-11-27T14:16:14.353Z,4.26
2022-11-27T14:26:23.273Z,4.13
2022-11-27T14:36:32.035Z,4.04
2022-11-27T14:46:39.327Z,3.90
2022-11-27T14:56:47.605Z,3.80
2022-11-27T15:06:54.260Z,3.75
2022-11-27T15:27:16.531Z,3.68
2022-11-27T15:37:22.216Z,3.55
2022-11-27T15:47:27.580Z,3.41
2022-11-27T15:57:34.645Z,3.37
2022-11-27T16:07:40.554Z,3.39
2022-11-27T16:17:47.845Z,3.49
2022-11-27T16:28:00.929Z,3.52
2022-11-27T16:38:10.056Z,3.36
2022-11-27T16:58:23.760Z,3.09
2022-11-27T17:08:31.175Z,3.09
2022-11-27T17:18:38.387Z,3.15
2022-11-27T17:28:46.113Z,3.18
2022-11-27T17:38:54.225Z,3.09
2022-11-27T17:49:00.862Z,2.94
2022-11-27T17:59:08.063Z,2.91
2022-11-27T18:09:15.134Z,2.95
2022-11-27T18:19:22.957Z,3.01
2022-11-27T18:29:30.253Z,3.00
2022-11-27T18:39:38.459Z,2.97
2022-11-27T18:49:45.823Z,2.84
2022-11-27T18:59:51.978Z,2.78
2022-11-27T19:09:59.311Z,2.83
2022-11-27T19:20:08.044Z,2.86
2022-11-27T19:30:16.596Z,2.84
2022-11-27T19:40:24.651Z,2.76
2022-11-27T19:50:31.971Z,2.62
2022-11-27T20:00:39.726Z,2.48
2022-11-27T20:10:50.363Z,2.41
2022-11-27T20:21:05.128Z,2.52
2022-11-27T20:31:17.323Z,2.69
2022-11-27T20:41:25.469Z,2.73
2022-11-27T20:51:33.659Z,2.68
2022-11-27T21:01:43.168Z,2.54
2022-11-27T21:11:49.052Z,2.40
2022-11-27T21:21:57.287Z,2.28
2022-11-27T21:32:04.765Z,2.27
2022-11-27T21:42:12.504Z,2.39
2022-11-27T21:52:19.656Z,2.54
2022-11-27T22:02:27.389Z,2.49
2022-11-27T22:12:34.823Z,2.31
2022-11-27T22:22:41.856Z,2.19
2022-11-27T22:32:49.259Z,2.18
2022-11-27T22:42:56.531Z,2.26
2022-11-27T22:53:04.410Z,2.21
2022-11-27T23:03:11.506Z,2.01
2022-11-27T23:13:19.880Z,1.84
2022-11-27T23:23:27.086Z,1.72
2022-11-27T23:33:34.303Z,1.70
2022-11-27T23:43:42.612Z,1.84
2022-11-27T23:53:50.388Z,1.91
